M I D A S
Marine Information and Data Acquisition System
Tripno 764 of the Zeeleeuw from 2004-08-20 06:23:16 to 2004-08-20 11:06:25
Back to CruiseResearch ActivitiesStationsMapUnderway DataData graphs

EquipmentUnitsComments
TimeDGPSUTC
LatitudeDGPSDM.mWGS84
LongitudeDGPSDM.mWGS84
SpeedMeteo Stationm/sRelative wind speed
DirectionMeteo StationdegRelative wind direction
TemperatureMeteo Stationdeg CelciusAir temperature
PressureMeteo StationPaAtmospheric pressure
HumidityMeteo Station%Relative humidity
Missing or incorrect values are displayed as -999
Metereological data collected by the RV Zeeleeuw from 2004-08-20 06:23:16 to 2004-08-20 11:06:25
                                                                                    Next 1000 lines
Time Latitude Longitude Speed Direction Temperature Pressure Humidity
2004-08-20 06:23:24 51°13.582 2°56.086 3.7 57 14.8 100560 88
2004-08-20 06:23:26 51°13.581 2°56.089 3.6 55 14.8 100570 89
2004-08-20 06:23:36 51°13.573 2°56.103 3.3 20 14.8 100560 89
2004-08-20 06:23:39 51°13.57 2°56.108 4.2 46 14.8 100560 89
2004-08-20 06:23:45 51°13.566 2°56.117 5.2 28 14.8 100570 88
2004-08-20 06:23:52 51°13.561 2°56.127 4.2 64 14.8 100570 88
2004-08-20 06:23:55 51°13.559 2°56.131 3.6 75 14.8 100560 89
2004-08-20 06:23:59 51°13.556 2°56.137 4.3 33 14.8 100560 89
2004-08-20 06:24:09 51°13.549 2°56.151 3.2 36 14.8 100570 88
2004-08-20 06:24:12 51°13.548 2°56.156 3 64 14.8 100570 88
2004-08-20 06:24:19 51°13.544 2°56.167 4.2 60 14.8 100570 88
2004-08-20 06:24:24 51°13.542 2°56.176 2.6 66 14.8 100570 88
2004-08-20 06:24:28 51°13.542 2°56.183 3.1 54 14.8 100560 89
2004-08-20 06:24:34 51°13.541 2°56.193 3.5 73 14.8 100560 89
2004-08-20 06:24:39 51°13.542 2°56.202 4.4 81 14.8 100570 89
2004-08-20 06:24:43 51°13.543 2°56.208 4.3 226 14.8 100570 89
2004-08-20 06:24:47 51°13.544 2°56.214 4.1 130 14.8 100570 89
2004-08-20 06:24:54 51°13.546 2°56.224 5.1 139 14.8 100570 89
2004-08-20 06:24:59 51°13.547 2°56.229 5.8 43 14.8 100570 89
2004-08-20 06:25:03 51°13.548 2°56.232 5.4 125 14.8 100570 89
2004-08-20 06:25:08 51°13.549 2°56.235 3.2 138 14.8 100570 89
2004-08-20 06:25:15 51°13.55 2°56.236 3 143 14.8 100570 88
2004-08-20 06:25:23 51°13.549 2°56.236 3.7 162 14.8 100570 88
2004-08-20 06:25:27 51°13.548 2°56.235 4.6 167 14.8 100570 88
2004-08-20 06:25:31 51°13.548 2°56.234 5.4 177 14.8 100570 88
2004-08-20 06:25:35 51°13.547 2°56.232 4.5 156 14.8 100570 88
2004-08-20 06:25:43 51°13.545 2°56.228 2.7 163 14.8 100570 88
2004-08-20 06:25:48 51°13.543 2°56.224 2.9 136 14.8 100570 88
2004-08-20 06:25:53 51°13.542 2°56.221 3.4 146 14.8 100570 88
2004-08-20 06:25:56 51°13.542 2°56.22 3.8 160 14.8 100570 88
2004-08-20 06:26:03 51°13.54 2°56.217 3.4 180 14.8 100570 88
2004-08-20 06:26:08 51°13.54 2°56.216 3.8 179 14.9 100570 88
2004-08-20 06:26:13 51°13.54 2°56.216 4.3 179 14.9 100570 88
2004-08-20 06:26:17 51°13.541 2°56.217 3.3 222 14.9 100570 89
2004-08-20 06:26:23 51°13.543 2°56.218 3 222 14.9 100570 89
2004-08-20 06:26:27 51°13.544 2°56.219 4.8 226 14.9 100570 89
2004-08-20 06:26:33 51°13.546 2°56.22 4.8 213 14.9 100570 89
2004-08-20 06:26:37 51°13.547 2°56.22 4.4 208 14.9 100570 89
2004-08-20 06:26:43 51°13.548 2°56.221 4.6 226 14.9 100570 89
2004-08-20 06:26:48 51°13.548 2°56.221 3.9 221 14.9 100570 88
2004-08-20 06:26:53 51°13.548 2°56.222 4 211 14.9 100570 88
2004-08-20 06:26:56 51°13.547 2°56.221 3.3 232 14.9 100580 88
2004-08-20 06:26:59 51°13.546 2°56.221 3.7 209 14.9 100580 88
2004-08-20 06:27:07 51°13.543 2°56.221 2.6 217 14.9 100570 88
2004-08-20 06:27:12 51°13.541 2°56.22 3 223 14.9 100570 88
2004-08-20 06:27:17 51°13.539 2°56.22 2.8 227 14.9 100570 88
2004-08-20 06:27:23 51°13.538 2°56.219 1.4 185 14.9 100570 88
2004-08-20 06:27:28 51°13.538 2°56.219 1.2 228 14.9 100570 88
2004-08-20 06:27:33 51°13.54 2°56.219 3.5 237 14.9 100570 88
2004-08-20 06:27:35 51°13.541 2°56.219 3 244 14.9 100570 88
2004-08-20 06:27:43 51°13.545 2°56.218 4.8 225 14.9 100570 88
2004-08-20 06:27:48 51°13.546 2°56.219 3.6 240 14.9 100570 88
2004-08-20 06:27:52 51°13.547 2°56.219 4.3 233 14.9 100570 88
2004-08-20 06:27:57 51°13.546 2°56.219 4 219 14.9 100570 88
2004-08-20 06:28:03 51°13.546 2°56.22 4.6 223 14.9 100570 88
2004-08-20 06:28:07 51°13.545 2°56.22 3.8 214 14.9 100580 88
2004-08-20 06:28:12 51°13.543 2°56.222 3 216 14.9 100580 88
2004-08-20 06:28:15 51°13.541 2°56.222 2 254 14.9 100580 88
2004-08-20 06:28:23 51°13.537 2°56.225 3.5 239 14.9 100580 88
2004-08-20 06:28:28 51°13.534 2°56.226 3.1 234 14.9 100580 88
2004-08-20 06:28:33 51°13.531 2°56.228 1.8 251 14.9 100580 88
2004-08-20 06:28:37 51°13.529 2°56.229 1.7 254 14.9 100570 88
2004-08-20 06:28:43 51°13.527 2°56.229 0.9 181 14.9 100570 88
2004-08-20 06:28:48 51°13.528 2°56.229 0.9 41 14.9 100570 88
2004-08-20 06:28:53 51°13.529 2°56.227 1 227 14.9 100570 88
2004-08-20 06:28:57 51°13.531 2°56.224 1.2 316 15 100570 88
2004-08-20 06:29:03 51°13.534 2°56.218 1.3 311 15 100570 88
2004-08-20 06:29:07 51°13.536 2°56.214 2.9 312 15 100570 88
2004-08-20 06:29:13 51°13.539 2°56.206 2.9 318 15 100570 88
2004-08-20 06:29:17 51°13.542 2°56.2 3.6 296 15 100570 88
2004-08-20 06:29:22 51°13.544 2°56.192 2.7 307 15 100570 88
2004-08-20 06:29:27 51°13.547 2°56.183 2.1 43 15 100570 88
2004-08-20 06:29:37 51°13.554 2°56.163 2.3 316 15 100570 88
2004-08-20 06:29:42 51°13.557 2°56.151 3 338 15 100570 88
2004-08-20 06:29:47 51°13.561 2°56.139 2.6 326 15 100570 88
2004-08-20 06:29:50 51°13.563 2°56.132 2.6 312 15 100570 88
2004-08-20 06:29:57 51°13.569 2°56.114 2.9 313 15 100570 88
2004-08-20 06:30:01 51°13.572 2°56.103 3.4 324 15 100570 88
2004-08-20 06:30:07 51°13.578 2°56.087 3.4 295 15 100570 88
2004-08-20 06:30:18 51°13.589 2°56.057 5.4 328 15 100570 88
2004-08-20 06:30:23 51°13.595 2°56.042 4.7 303 15 100570 88
2004-08-20 06:30:28 51°13.6 2°56.028 4.4 321 15 100570 88
2004-08-20 06:30:31 51°13.604 2°56.02 3.3 330 15 100570 88
2004-08-20 06:30:38 51°13.612 2°56 3.2 318 15 100570 88
2004-08-20 06:30:43 51°13.619 2°55.986 3.7 328 15 100570 88
2004-08-20 06:30:48 51°13.625 2°55.971 5.2 351 15 100560 88
2004-08-20 06:30:53 51°13.631 2°55.956 4 331 15 100560 88
2004-08-20 06:30:58 51°13.637 2°55.941 5.8 320 15 100570 88
2004-08-20 06:31:03 51°13.643 2°55.926 4.2 333 15 100570 88
2004-08-20 06:31:07 51°13.648 2°55.914 4.6 1 15 100570 88
2004-08-20 06:31:19 51°13.663 2°55.878 4.8 338 15 100570 88
2004-08-20 06:31:24 51°13.669 2°55.863 4.5 333 15 100570 88
2004-08-20 06:31:27 51°13.673 2°55.853 5.2 345 15 100570 88
2004-08-20 06:31:32 51°13.679 2°55.838 6.3 319 15 100570 88
2004-08-20 06:31:43 51°13.694 2°55.805 4.5 315 15 100570 88
2004-08-20 06:31:48 51°13.701 2°55.791 4.4 313 15 100570 88
2004-08-20 06:31:51 51°13.706 2°55.782 4.4 315 15 100570 88
2004-08-20 06:31:58 51°13.716 2°55.762 3.7 301 15 100560 88
2004-08-20 06:32:03 51°13.724 2°55.748 3.4 302 15 100560 88
2004-08-20 06:32:07 51°13.73 2°55.737 2.8 319 15 100560 88
2004-08-20 06:32:21 51°13.754 2°55.701 3.3 339 15 100560 88
2004-08-20 06:32:26 51°13.763 2°55.69 2.6 352 15 100560 88
2004-08-20 06:32:31 51°13.773 2°55.679 3 330 15 100560 88
2004-08-20 06:32:36 51°13.782 2°55.668 3.9 349 15 100560 88
2004-08-20 06:32:40 51°13.79 2°55.66 4.5 328 15 100570 88
2004-08-20 06:32:47 51°13.804 2°55.646 2.4 310 15 100570 88
2004-08-20 06:32:48 51°13.806 2°55.644 1.9 245 15 100570 88
2004-08-20 06:32:59 51°13.83 2°55.627 1.9 232 15 100570 88
2004-08-20 06:33:03 51°13.838 2°55.621 1.7 317 15 100570 88
2004-08-20 06:33:12 51°13.858 2°55.609 1.3 13 15 100570 88
2004-08-20 06:33:15 51°13.864 2°55.605 1.4 49 15 100560 88
2004-08-20 06:33:29 51°13.896 2°55.584 1.5 8 15 100570 88
2004-08-20 06:33:32 51°13.902 2°55.58 1.2 346 15 100570 88
2004-08-20 06:33:39 51°13.918 2°55.568 1.4 227 15 100570 88
2004-08-20 06:33:44 51°13.929 2°55.559 2 8 15 100570 88
2004-08-20 06:33:47 51°13.936 2°55.554 2.5 336 15 100570 88
2004-08-20 06:33:52 51°13.948 2°55.546 2.3 342 15 100570 88
2004-08-20 06:34:03 51°13.973 2°55.528 2.5 343 15 100570 88
2004-08-20 06:34:08 51°13.985 2°55.52 1.5 354 15 100570 88
2004-08-20 06:34:13 51°13.996 2°55.512 1.8 295 15 100570 88
2004-08-20 06:34:18 51°14.008 2°55.503 3.3 266 15 100570 89
2004-08-20 06:34:23 51°14.02 2°55.495 3 294 15 100570 89
2004-08-20 06:34:27 51°14.03 2°55.488 4.2 321 15 100570 89
2004-08-20 06:34:32 51°14.043 2°55.48 4.3 318 15 100570 89
2004-08-20 06:34:37 51°14.055 2°55.471 2.2 296 15 100570 88
2004-08-20 06:34:44 51°14.072 2°55.459 2.2 299 15 100570 88
2004-08-20 06:34:48 51°14.081 2°55.451 4.7 317 15 100570 88
2004-08-20 06:34:53 51°14.094 2°55.442 4.1 313 15 100570 88
2004-08-20 06:34:58 51°14.106 2°55.432 4.2 296 15 100560 88
2004-08-20 06:35:03 51°14.119 2°55.422 4.4 346 15 100560 88
2004-08-20 06:35:08 51°14.132 2°55.412 4.2 331 15 100560 88
2004-08-20 06:35:11 51°14.14 2°55.404 5.8 315 15 100560 88
2004-08-20 06:35:19 51°14.16 2°55.385 4.6 283 15 100560 88
2004-08-20 06:35:23 51°14.171 2°55.375 3.8 291 15 100560 88
2004-08-20 06:35:27 51°14.181 2°55.365 3.5 295 15 100560 88
2004-08-20 06:35:39 51°14.211 2°55.329 3.4 316 15 100560 88
2004-08-20 06:35:43 51°14.22 2°55.316 4.3 323 15 100560 88
2004-08-20 06:35:52 51°14.241 2°55.286 8.7 317 15 100560 88
2004-08-20 06:35:55 51°14.247 2°55.275 6.3 324 15 100560 88
2004-08-20 06:36:09 51°14.279 2°55.223 6.7 329 15 100560 88
2004-08-20 06:36:12 51°14.286 2°55.211 7.8 319 15 100560 88
2004-08-20 06:36:19 51°14.301 2°55.184 8.8 329 15.1 100560 88
2004-08-20 06:36:24 51°14.313 2°55.164 10.2 315 15.1 100560 88
2004-08-20 06:36:27 51°14.319 2°55.152 10.3 328 15 100560 88
2004-08-20 06:36:32 51°14.331 2°55.132 8.7 311 15 100560 88
2004-08-20 06:36:43 51°14.356 2°55.087 8.2 311 15 100560 88
2004-08-20 06:36:48 51°14.367 2°55.066 10 301 15.1 100560 88
2004-08-20 06:36:53 51°14.379 2°55.044 10.4 303 15.1 100560 88
2004-08-20 06:36:58 51°14.39 2°55.022 10.9 295 15.1 100550 88
2004-08-20 06:37:03 51°14.4 2°54.998 9.8 42 15.1 100550 88
2004-08-20 06:37:07 51°14.407 2°54.978 11.7 38 15.1 100560 88
2004-08-20 06:37:13 51°14.416 2°54.947 10.8 43 15.1 100560 88
2004-08-20 06:37:18 51°14.423 2°54.92 11.7 321 15.1 100540 88
2004-08-20 06:37:23 51°14.428 2°54.892 11.4 323 15.1 100540 88
2004-08-20 06:37:27 51°14.432 2°54.869 11.2 332 15.1 100540 88
2004-08-20 06:37:33 51°14.436 2°54.835 12.3 335 15.1 100540 88
2004-08-20 06:37:38 51°14.437 2°54.806 13.8 334 15.1 100540 89
2004-08-20 06:37:43 51°14.438 2°54.777 14.9 329 15.1 100540 89
2004-08-20 06:37:47 51°14.439 2°54.754 13.6 328 15.1 100530 89
2004-08-20 06:37:53 51°14.44 2°54.718 13.5 323 15.1 100530 89
2004-08-20 06:37:57 51°14.441 2°54.695 13.4 326 15.1 100530 89
2004-08-20 06:38:03 51°14.442 2°54.66 14.1 325 15.1 100530 89
2004-08-20 06:38:07 51°14.442 2°54.637 15 325 15.1 100530 88
2004-08-20 06:38:12 51°14.442 2°54.611 11.9 330 15.1 100530 88
2004-08-20 06:38:15 51°14.441 2°54.596 12.5 329 15.1 100510 88
2004-08-20 06:38:23 51°14.439 2°54.559 10.6 331 15.1 100510 88
2004-08-20 06:38:27 51°14.438 2°54.543 12.5 333 15.1 100520 89
2004-08-20 06:38:31 51°14.436 2°54.528 12.2 337 15.1 100520 89
2004-08-20 06:38:37 51°14.434 2°54.507 11.1 318 15.1 100530 88
2004-08-20 06:38:43 51°14.433 2°54.489 11.4 321 15.1 100530 88
2004-08-20 06:38:48 51°14.431 2°54.474 12.1 324 15.1 100530 89
2004-08-20 06:38:52 51°14.43 2°54.463 12.5 330 15.1 100530 89
2004-08-20 06:38:58 51°14.429 2°54.447 11 323 15.1 100520 88
2004-08-20 06:39:03 51°14.429 2°54.434 10.7 322 15.1 100520 88
2004-08-20 06:39:07 51°14.429 2°54.425 10.5 318 15.2 100530 89
2004-08-20 06:39:12 51°14.429 2°54.414 12.2 313 15.2 100530 89
2004-08-20 06:39:18 51°14.429 2°54.402 9.8 315 15.1 100530 89
2004-08-20 06:39:23 51°14.429 2°54.392 8.8 312 15.1 100530 89
2004-08-20 06:39:28 51°14.429 2°54.382 9.4 314 15.1 100530 88
2004-08-20 06:39:33 51°14.43 2°54.372 9.4 310 15.1 100530 88
2004-08-20 06:39:38 51°14.43 2°54.364 9.3 309 15.1 100550 88
2004-08-20 06:39:43 51°14.431 2°54.356 9.6 300 15.1 100550 88
2004-08-20 06:39:47 51°14.431 2°54.349 9.2 300 15.2 100540 88
2004-08-20 06:39:59 51°14.433 2°54.33 8 299 15.2 100550 89
2004-08-20 06:40:03 51°14.433 2°54.324 8.9 308 15.2 100550 89
2004-08-20 06:40:09 51°14.433 2°54.315 9 307 15.2 100550 89
2004-08-20 06:40:14 51°14.434 2°54.308 9.6 315 15.2 100550 89
2004-08-20 06:40:19 51°14.434 2°54.302 8.9 309 15.2 100550 89
2004-08-20 06:40:24 51°14.435 2°54.295 8.6 312 15.2 100550 89
2004-08-20 06:40:29 51°14.435 2°54.289 8.7 300 15.3 100550 89
2004-08-20 06:40:39 51°14.435 2°54.277 9 311 15.3 100550 89
2004-08-20 06:40:43 51°14.435 2°54.272 7.9 306 15.3 100550 89
2004-08-20 06:40:55 51°14.436 2°54.26 9.9 310 15.3 100550 89
2004-08-20 06:41:03 51°14.436 2°54.252 9 314 15.3 100550 89
2004-08-20 06:41:07 51°14.436 2°54.249 9.1 227 15.3 100550 89
2004-08-20 06:41:12 51°14.435 2°54.245 9.4 308 15.3 100550 89
2004-08-20 06:41:15 51°14.436 2°54.243 7.8 309 15.3 100550 89
2004-08-20 06:41:23 51°14.436 2°54.237 8.7 233 15.3 100550 89
2004-08-20 06:41:27 51°14.436 2°54.234 8.2 309 15.3 100550 89
2004-08-20 06:41:37 51°14.436 2°54.228 9.6 306 15.2 100550 89
2004-08-20 06:41:42 51°14.436 2°54.225 10.1 306 15.2 100550 89
2004-08-20 06:41:47 51°14.436 2°54.222 10.1 313 15.3 100550 89
2004-08-20 06:41:52 51°14.436 2°54.219 10 312 15.3 100550 89
2004-08-20 06:41:56 51°14.437 2°54.217 9.6 312 15.3 100550 89
2004-08-20 06:42:03 51°14.437 2°54.213 7.7 311 15.3 100550 89
2004-08-20 06:42:07 51°14.437 2°54.211 8.9 228 15.2 100550 89
2004-08-20 06:42:10 51°14.437 2°54.211 9.1 312 15.2 100550 89
2004-08-20 06:42:15 51°14.438 2°54.208 10.3 318 15.3 100540 89
2004-08-20 06:42:22 51°14.438 2°54.206 9.7 311 15.3 100540 89
2004-08-20 06:42:27 51°14.438 2°54.204 7.4 312 15.3 100550 89
2004-08-20 06:42:32 51°14.439 2°54.202 7.6 303 15.3 100550 89
2004-08-20 06:42:35 51°14.439 2°54.201 8.1 299 15.3 100550 89
2004-08-20 06:42:39 51°14.439 2°54.199 8.6 298 15.3 100550 89
2004-08-20 06:42:47 51°14.44 2°54.196 9 300 15.3 100540 89
2004-08-20 06:42:52 51°14.44 2°54.194 7.9 305 15.3 100540 89
2004-08-20 06:42:54 51°14.44 2°54.193 9 301 15.3 100550 89
2004-08-20 06:43:05 51°14.441 2°54.189 8.4 304 15.3 100550 89
2004-08-20 06:43:07 51°14.441 2°54.189 10.1 311 15.3 100550 89
2004-08-20 06:43:12 51°14.442 2°54.188 9.4 307 15.3 100550 89
2004-08-20 06:43:23 51°14.443 2°54.185 8.2 306 15.3 100550 89
2004-08-20 06:43:28 51°14.443 2°54.183 8.8 305 15.3 100550 89
2004-08-20 06:43:31 51°14.443 2°54.182 10.9 309 15.3 100550 89
2004-08-20 06:43:38 51°14.444 2°54.179 8.7 306 15.3 100540 89
2004-08-20 06:43:43 51°14.445 2°54.177 9.6 307 15.3 100540 89
2004-08-20 06:43:47 51°14.445 2°54.174 10.8 310 15.3 100550 89
2004-08-20 06:43:59 51°14.446 2°54.159 13 325 15.3 100550 89
2004-08-20 06:44:04 51°14.446 2°54.149 14 319 15.3 100550 89
2004-08-20 06:44:11 51°14.443 2°54.132 15.6 330 15.3 100550 89
2004-08-20 06:44:16 51°14.442 2°54.119 15.8 328 15.3 100550 89
2004-08-20 06:44:19 51°14.44 2°54.11 13.3 335 15.4 100540 89
2004-08-20 06:44:23 51°14.437 2°54.097 13.7 336 15.3 100530 89
2004-08-20 06:44:32 51°14.43 2°54.066 14.7 338 15.3 100530 89
2004-08-20 06:44:35 51°14.428 2°54.055 14.5 340 15.3 100530 89
2004-08-20 06:44:39 51°14.423 2°54.04 13.1 343 15.3 100510 88
2004-08-20 06:44:43 51°14.419 2°54.024 15.4 350 15.3 100510 88
2004-08-20 06:44:51 51°14.409 2°53.992 14.5 345 15.3 100500 89
2004-08-20 06:44:55 51°14.403 2°53.974 15 347 15.3 100500 89
2004-08-20 06:44:59 51°14.397 2°53.956 15.4 350 15.4 100510 89
2004-08-20 06:45:05 51°14.387 2°53.928 14.8 346 15.4 100520 89
2004-08-20 06:45:09 51°14.38 2°53.909 16 347 15.4 100520 89
2004-08-20 06:45:17 51°14.366 2°53.87 16.5 347 15.4 100520 89
2004-08-20 06:45:21 51°14.359 2°53.851 15.3 347 15.4 100520 89
2004-08-20 06:45:27 51°14.349 2°53.821 16.9 344 15.4 100520 89
2004-08-20 06:45:32 51°14.34 2°53.795 16.3 341 15.4 100520 89
2004-08-20 06:45:36 51°14.333 2°53.775 15.3 345 15.4 100510 89
2004-08-20 06:45:42 51°14.322 2°53.744 16.8 343 15.4 100510 89
2004-08-20 06:45:47 51°14.313 2°53.718 17.5 347 15.4 100520 89
2004-08-20 06:45:52 51°14.304 2°53.693 16.5 348 15.4 100520 89
2004-08-20 06:45:56 51°14.297 2°53.672 18.1 350 15.4 100510 89
2004-08-20 06:46:01 51°14.288 2°53.646 16.3 344 15.4 100510 89
2004-08-20 06:46:07 51°14.277 2°53.615 18.6 340 15.4 100520 89
2004-08-20 06:46:12 51°14.268 2°53.589 16.1 345 15.4 100520 89
2004-08-20 06:46:16 51°14.261 2°53.569 17.1 346 15.4 100520 89
2004-08-20 06:46:22 51°14.25 2°53.538 15.8 347 15.4 100510 89
2004-08-20 06:46:28 51°14.239 2°53.507 15.4 347 15.4 100510 89
2004-08-20 06:46:32 51°14.231 2°53.487 13.8 342 15.4 100510 89
2004-08-20 06:46:37 51°14.222 2°53.461 15.9 342 15.4 100510 89
2004-08-20 06:46:42 51°14.212 2°53.436 18.4 354 15.4 100520 88
2004-08-20 06:46:47 51°14.202 2°53.41 16.2 347 15.4 100520 88
2004-08-20 06:46:52 51°14.193 2°53.384 17.7 347 15.5 100520 89
2004-08-20 06:46:55 51°14.187 2°53.369 17.6 350 15.5 100530 90
2004-08-20 06:47:02 51°14.174 2°53.333 17.2 352 15.5 100530 90
2004-08-20 06:47:04 51°14.17 2°53.323 16.9 347 15.5 100520 90
2004-08-20 06:47:12 51°14.155 2°53.282 15.5 346 15.5 100520 90
2004-08-20 06:47:14 51°14.151 2°53.272 16.1 348 15.5 100510 89
2004-08-20 06:47:22 51°14.136 2°53.231 17.3 346 15.5 100510 89
2004-08-20 06:47:24 51°14.133 2°53.221 15.3 347 15.5 100520 89
2004-08-20 06:47:32 51°14.118 2°53.18 16.1 345 15.5 100520 89
2004-08-20 06:47:36 51°14.11 2°53.159 16.9 343 15.5 100510 89
2004-08-20 06:47:40 51°14.103 2°53.139 14.9 351 15.5 100510 89
2004-08-20 06:47:47 51°14.09 2°53.103 17 345 15.5 100510 89
2004-08-20 06:47:51 51°14.082 2°53.083 18.9 345 15.5 100510 89
2004-08-20 06:47:56 51°14.073 2°53.058 17.4 347 15.5 100510 89
2004-08-20 06:48:02 51°14.061 2°53.027 16.6 346 15.5 100530 89
2004-08-20 06:48:04 51°14.058 2°53.017 17.6 348 15.5 100520 89
2004-08-20 06:48:13 51°14.04 2°52.971 17.6 345 15.5 100520 89
2004-08-20 06:48:17 51°14.033 2°52.951 17.8 344 15.5 100510 89
2004-08-20 06:48:24 51°14.02 2°52.915 17.7 337 15.5 100510 89
2004-08-20 06:48:28 51°14.012 2°52.895 18 339 15.5 100520 88
2004-08-20 06:48:32 51°14.005 2°52.875 17.6 342 15.5 100520 88
2004-08-20 06:48:39 51°13.992 2°52.839 18 345 15.5 100510 88
2004-08-20 06:48:44 51°13.983 2°52.814 16.7 344 15.5 100510 88
2004-08-20 06:48:48 51°13.975 2°52.793 16.9 347 15.5 100500 88
2004-08-20 06:48:52 51°13.968 2°52.772 18.2 346 15.5 100500 88
2004-08-20 06:48:59 51°13.955 2°52.736 19.3 346 15.5 100490 88
2004-08-20 06:49:04 51°13.946 2°52.71 17.1 338 15.5 100490 88
2004-08-20 06:49:08 51°13.938 2°52.69 19 343 15.5 100510 88
2004-08-20 06:49:12 51°13.931 2°52.669 16.5 340 15.5 100510 88
2004-08-20 06:49:19 51°13.918 2°52.633 16.4 345 15.5 100520 88
2004-08-20 06:49:24 51°13.909 2°52.608 17.6 344 15.5 100520 88
2004-08-20 06:49:28 51°13.901 2°52.587 15.9 343 15.5 100500 88
2004-08-20 06:49:32 51°13.894 2°52.566 16.5 348 15.5 100500 88
2004-08-20 06:49:40 51°13.879 2°52.525 16.9 342 15.5 100500 88
2004-08-20 06:49:47 51°13.866 2°52.489 17.5 343 15.5 100510 89
2004-08-20 06:49:52 51°13.857 2°52.464 16.2 340 15.5 100510 89
2004-08-20 06:49:56 51°13.849 2°52.443 16.1 340 15.5 100510 88
2004-08-20 06:50:00 51°13.842 2°52.422 15.6 347 15.5 100510 88
2004-08-20 06:50:07 51°13.828 2°52.387 15.6 346 15.5 100510 88
2004-08-20 06:50:12 51°13.819 2°52.361 16.1 344 15.5 100510 88
2004-08-20 06:50:15 51°13.813 2°52.345 17.6 344 15.6 100510 89
2004-08-20 06:50:20 51°13.804 2°52.32 17.6 345 15.6 100510 89
2004-08-20 06:50:25 51°13.794 2°52.293 17.1 336 15.6 100520 89
2004-08-20 06:50:32 51°13.781 2°52.257 17.6 337 15.6 100520 89
2004-08-20 06:50:36 51°13.774 2°52.236 18.4 339 15.6 100520 89
2004-08-20 06:50:40 51°13.766 2°52.216 16.7 346 15.6 100520 89
2004-08-20 06:50:47 51°13.754 2°52.179 17.9 347 15.6 100500 89
2004-08-20 06:50:52 51°13.745 2°52.154 17 350 15.6 100500 89
2004-08-20 06:50:56 51°13.737 2°52.133 18.3 344 15.5 100520 88
2004-08-20 06:51:00 51°13.73 2°52.113 18.7 344 15.5 100520 88
2004-08-20 06:51:04 51°13.723 2°52.092 17.7 340 15.5 100520 88
2004-08-20 06:51:12 51°13.708 2°52.051 17.2 344 15.5 100500 88
2004-08-20 06:51:16 51°13.7 2°52.03 15.7 346 15.5 100500 88
2004-08-20 06:51:21 51°13.691 2°52.004 15.5 347 15.5 100500 88
2004-08-20 06:51:26 51°13.681 2°51.978 15.5 346 15.5 100500 88
2004-08-20 06:51:35 51°13.664 2°51.931 18.5 340 15.5 100500 88
2004-08-20 06:51:43 51°13.649 2°51.89 18.4 337 15.5 100500 88
2004-08-20 06:51:48 51°13.64 2°51.864 15.4 343 15.5 100530 88
2004-08-20 06:51:52 51°13.632 2°51.843 15.3 340 15.5 100530 88
2004-08-20 06:52:01 51°13.616 2°51.796 17.1 345 15.5 100530 88
2004-08-20 06:52:06 51°13.606 2°51.769 18 344 15.6 100510 89
2004-08-20 06:52:12 51°13.595 2°51.738 18.4 346 15.6 100510 89
2004-08-20 06:52:17 51°13.585 2°51.712 17.7 351 15.6 100510 89
2004-08-20 06:52:22 51°13.576 2°51.686 19.1 347 15.6 100520 89
2004-08-20 06:52:25 51°13.57 2°51.67 17.6 339 15.6 100520 89
2004-08-20 06:52:32 51°13.557 2°51.634 16.6 342 15.6 100520 89
2004-08-20 06:52:36 51°13.55 2°51.613 17.1 337 15.6 100520 89
2004-08-20 06:52:40 51°13.543 2°51.592 16.5 339 15.6 100520 89
2004-08-20 06:52:44 51°13.536 2°51.571 15.7 343 15.6 100520 88
2004-08-20 06:52:49 51°13.526 2°51.545 17.6 346 15.6 100520 88
2004-08-20 06:52:56 51°13.513 2°51.509 18.2 347 15.6 100520 88
2004-08-20 06:53:05 51°13.497 2°51.462 16.7 340 15.6 100520 88
2004-08-20 06:53:11 51°13.485 2°51.431 16.5 344 15.6 100510 89
2004-08-20 06:53:16 51°13.476 2°51.405 16.8 350 15.6 100510 89
2004-08-20 06:53:20 51°13.468 2°51.384 17.6 346 15.6 100520 89
2004-08-20 06:53:25 51°13.459 2°51.357 16.1 350 15.6 100520 89
2004-08-20 06:53:30 51°13.45 2°51.331 16 350 15.6 100510 89
2004-08-20 06:53:36 51°13.439 2°51.3 17.9 346 15.6 100510 89
2004-08-20 06:53:40 51°13.431 2°51.279 16.3 347 15.6 100520 89
2004-08-20 06:53:46 51°13.42 2°51.247 16.5 339 15.6 100520 89
2004-08-20 06:53:51 51°13.411 2°51.221 16.6 345 15.6 100520 89
2004-08-20 06:53:56 51°13.402 2°51.195 17.1 345 15.6 100520 89
2004-08-20 06:54:00 51°13.395 2°51.174 15.9 346 15.6 100530 89
2004-08-20 06:54:06 51°13.383 2°51.143 18 337 15.6 100530 89
2004-08-20 06:54:10 51°13.376 2°51.122 19 342 15.6 100540 89
2004-08-20 06:54:15 51°13.367 2°51.095 18.8 344 15.6 100540 89
2004-08-20 06:54:20 51°13.358 2°51.069 17.5 347 15.6 100520 89
2004-08-20 06:54:25 51°13.349 2°51.042 18.5 346 15.6 100520 89
2004-08-20 06:54:30 51°13.339 2°51.016 18.3 344 15.6 100540 89
2004-08-20 06:54:36 51°13.328 2°50.985 18 343 15.6 100540 89
2004-08-20 06:54:41 51°13.319 2°50.959 17.1 343 15.6 100500 89
2004-08-20 06:54:46 51°13.31 2°50.933 19.3 349 15.6 100500 89
2004-08-20 06:54:48 51°13.306 2°50.922 19 346 15.5 100520 88
2004-08-20 06:54:56 51°13.292 2°50.88 18.4 344 15.5 100520 88
2004-08-20 06:55:00 51°13.284 2°50.859 16.5 342 15.5 100520 88
2004-08-20 06:55:05 51°13.275 2°50.833 16 348 15.5 100520 88
2004-08-20 06:55:12 51°13.263 2°50.797 18.3 347 15.5 100520 88
2004-08-20 06:55:16 51°13.255 2°50.776 15.7 339 15.5 100520 88
2004-08-20 06:55:26 51°13.237 2°50.724 18.9 346 15.5 100510 88
2004-08-20 06:55:29 51°13.231 2°50.708 17.9 346 15.5 100520 88
2004-08-20 06:55:35 51°13.221 2°50.677 17 347 15.5 100520 88
2004-08-20 06:55:40 51°13.212 2°50.651 18.5 348 15.6 100520 89
2004-08-20 06:55:44 51°13.204 2°50.63 18.3 343 15.6 100520 89
2004-08-20 06:55:49 51°13.195 2°50.604 16.7 338 15.6 100520 89
2004-08-20 06:55:58 51°13.179 2°50.556 16.9 345 15.6 100520 89
2004-08-20 06:56:04 51°13.168 2°50.525 15.5 345 15.6 100520 89
2004-08-20 06:56:09 51°13.159 2°50.498 16 341 15.5 100530 89
2004-08-20 06:56:13 51°13.151 2°50.478 18 346 15.5 100530 89
2004-08-20 06:56:19 51°13.14 2°50.446 17.8 339 15.6 100520 89
2004-08-20 06:56:24 51°13.131 2°50.42 17.3 340 15.6 100520 89
2004-08-20 06:56:29 51°13.121 2°50.394 18 340 15.6 100530 89
2004-08-20 06:56:34 51°13.112 2°50.367 16.6 346 15.6 100530 89
2004-08-20 06:56:36 51°13.108 2°50.357 17.7 344 15.6 100530 89
2004-08-20 06:56:44 51°13.093 2°50.314 16.1 338 15.6 100530 89
2004-08-20 06:56:49 51°13.084 2°50.288 14.8 348 15.6 100520 90
2004-08-20 06:56:52 51°13.078 2°50.272 16.2 349 15.6 100520 90
2004-08-20 06:56:58 51°13.067 2°50.241 17.4 348 15.6 100530 90
2004-08-20 06:57:01 51°13.062 2°50.225 18 341 15.6 100530 90
2004-08-20 06:57:08 51°13.049 2°50.187 18.6 343 15.7 100530 90
2004-08-20 06:57:12 51°13.042 2°50.166 18.8 342 15.7 100530 90
2004-08-20 06:57:19 51°13.029 2°50.129 17.5 342 15.7 100540 90
2004-08-20 06:57:24 51°13.02 2°50.102 18.7 342 15.7 100540 90
2004-08-20 06:57:28 51°13.013 2°50.081 17.5 341 15.7 100530 90
2004-08-20 06:57:34 51°13.002 2°50.049 18.6 343 15.7 100530 90
2004-08-20 06:57:39 51°12.993 2°50.022 18.2 342 15.6 100520 89
2004-08-20 06:57:44 51°12.984 2°49.996 18.6 341 15.6 100520 89
2004-08-20 06:57:48 51°12.976 2°49.975 17 340 15.6 100520 89
2004-08-20 06:57:52 51°12.969 2°49.954 16.3 341 15.6 100520 89
2004-08-20 06:57:56 51°12.962 2°49.933 17.3 335 15.6 100520 89
2004-08-20 06:58:04 51°12.947 2°49.891 16.4 335 15.6 100520 89
2004-08-20 06:58:08 51°12.939 2°49.87 17.5 344 15.6 100510 88
2004-08-20 06:58:13 51°12.931 2°49.843 16.8 348 15.6 100510 88
2004-08-20 06:58:18 51°12.921 2°49.816 16.9 347 15.7 100530 89
2004-08-20 06:58:24 51°12.911 2°49.785 19.4 342 15.7 100530 89
2004-08-20 06:58:28 51°12.904 2°49.763 18.1 340 15.7 100520 90
2004-08-20 06:58:33 51°12.894 2°49.737 16.3 347 15.7 100520 90
2004-08-20 06:58:39 51°12.884 2°49.705 18.6 342 15.7 100530 90
2004-08-20 06:58:44 51°12.875 2°49.678 17.1 342 15.7 100530 90
2004-08-20 06:58:48 51°12.868 2°49.657 16.3 344 15.7 100520 89
2004-08-20 06:58:52 51°12.86 2°49.636 16.6 349 15.7 100520 89
2004-08-20 06:58:56 51°12.853 2°49.614 17.5 346 15.7 100520 89
2004-08-20 06:59:04 51°12.838 2°49.572 17.7 345 15.7 100520 89
2004-08-20 06:59:09 51°12.829 2°49.545 18.6 342 15.6 100520 89
2004-08-20 06:59:13 51°12.822 2°49.524 18.8 343 15.6 100520 89
2004-08-20 06:59:19 51°12.811 2°49.493 18.9 347 15.7 100530 89
2004-08-20 06:59:24 51°12.802 2°49.467 17.9 346 15.7 100530 89
2004-08-20 06:59:28 51°12.794 2°49.446 18.8 345 15.7 100520 89
2004-08-20 06:59:32 51°12.787 2°49.425 19 344 15.7 100520 89
2004-08-20 06:59:36 51°12.78 2°49.404 18.2 343 15.7 100500 89
2004-08-20 06:59:44 51°12.765 2°49.362 17.1 341 15.7 100500 89
2004-08-20 06:59:49 51°12.756 2°49.336 19.3 341 15.6 100520 89
2004-08-20 06:59:53 51°12.749 2°49.314 18.3 343 15.6 100520 89
2004-08-20 06:59:56 51°12.744 2°49.298 15.8 343 15.6 100520 89
2004-08-20 07:00:04 51°12.729 2°49.256 18.8 340 15.6 100520 89
2004-08-20 07:00:09 51°12.72 2°49.229 20.1 343 15.6 100520 89
2004-08-20 07:00:13 51°12.713 2°49.208 19.2 349 15.6 100520 89
2004-08-20 07:00:19 51°12.702 2°49.176 18.6 353 15.6 100510 89
2004-08-20 07:00:24 51°12.693 2°49.15 17.3 342 15.6 100510 89
2004-08-20 07:00:29 51°12.683 2°49.124 18.7 340 15.6 100530 89
2004-08-20 07:00:34 51°12.674 2°49.098 17.5 343 15.6 100530 89
2004-08-20 07:00:38 51°12.667 2°49.077 18.4 346 15.6 100510 89
2004-08-20 07:00:43 51°12.658 2°49.05 18.2 342 15.6 100510 89
2004-08-20 07:00:48 51°12.649 2°49.023 17.9 337 15.6 100520 88
2004-08-20 07:00:54 51°12.638 2°48.992 18.1 339 15.6 100520 88
2004-08-20 07:00:59 51°12.629 2°48.965 19.9 338 15.6 100520 88
2004-08-20 07:01:04 51°12.621 2°48.938 18.1 341 15.6 100520 88
2004-08-20 07:01:09 51°12.612 2°48.912 18.9 346 15.6 100520 88
2004-08-20 07:01:13 51°12.605 2°48.89 17.5 340 15.6 100520 88
2004-08-20 07:01:19 51°12.594 2°48.858 17.5 342 15.6 100520 88
2004-08-20 07:01:24 51°12.585 2°48.832 19.5 342 15.6 100520 88
2004-08-20 07:01:28 51°12.578 2°48.811 17.4 349 15.6 100500 88
2004-08-20 07:01:34 51°12.567 2°48.78 19.6 350 15.6 100500 88
2004-08-20 07:01:39 51°12.558 2°48.753 20.8 354 15.6 100520 88
2004-08-20 07:01:44 51°12.549 2°48.726 18.5 346 15.6 100520 88
2004-08-20 07:01:48 51°12.542 2°48.705 17.5 346 15.6 100530 88
2004-08-20 07:01:53 51°12.533 2°48.679 18 347 15.6 100530 88
2004-08-20 07:01:57 51°12.525 2°48.658 18.7 349 15.6 100550 88
2004-08-20 07:02:04 51°12.513 2°48.621 17.4 345 15.6 100550 88
2004-08-20 07:02:08 51°12.505 2°48.6 18.5 348 15.6 100530 88
2004-08-20 07:02:12 51°12.498 2°48.579 19.3 342 15.6 100530 88
2004-08-20 07:02:16 51°12.491 2°48.558 19.2 343 15.6 100530 88
2004-08-20 07:02:26 51°12.473 2°48.505 19.7 342 15.6 100520 88
2004-08-20 07:02:32 51°12.462 2°48.473 20.3 337 15.6 100520 88
2004-08-20 07:02:36 51°12.455 2°48.452 18.7 337 15.6 100540 88
2004-08-20 07:02:42 51°12.444 2°48.42 18.6 342 15.6 100540 88
2004-08-20 07:02:44 51°12.441 2°48.41 19.6 342 15.6 100510 88
2004-08-20 07:02:53 51°12.425 2°48.362 21.5 344 15.6 100510 88
2004-08-20 07:02:57 51°12.418 2°48.341 20.3 346 15.6 100500 88
2004-08-20 07:03:04 51°12.405 2°48.304 18.8 342 15.6 100500 88
2004-08-20 07:03:09 51°12.396 2°48.278 18 340 15.6 100510 88
2004-08-20 07:03:13 51°12.389 2°48.257 17 340 15.6 100510 88
2004-08-20 07:03:19 51°12.378 2°48.225 18.3 342 15.6 100490 88
2004-08-20 07:03:24 51°12.369 2°48.199 15.9 346 15.6 100490 88
2004-08-20 07:03:29 51°12.359 2°48.173 17.1 342 15.6 100510 88
2004-08-20 07:03:34 51°12.35 2°48.146 16.3 343 15.6 100510 88
2004-08-20 07:03:38 51°12.343 2°48.125 19.9 346 15.6 100520 88
2004-08-20 07:03:44 51°12.332 2°48.093 17.4 342 15.6 100520 88
2004-08-20 07:03:48 51°12.325 2°48.072 17.8 346 15.7 100520 89
2004-08-20 07:03:54 51°12.314 2°48.04 19.8 345 15.7 100520 89
2004-08-20 07:03:59 51°12.306 2°48.013 19.4 347 15.7 100530 89
2004-08-20 07:04:04 51°12.297 2°47.986 19.2 348 15.7 100530 89
2004-08-20 07:04:09 51°12.288 2°47.959 17.8 343 15.7 100520 88
2004-08-20 07:04:14 51°12.279 2°47.932 18.4 338 15.7 100520 88
2004-08-20 07:04:18 51°12.272 2°47.911 18.7 335 15.6 100530 88
2004-08-20 07:04:24 51°12.261 2°47.879 17.5 341 15.6 100530 88
2004-08-20 07:04:28 51°12.254 2°47.857 18.3 336 15.7 100520 88
2004-08-20 07:04:34 51°12.244 2°47.825 16.4 338 15.7 100520 88
2004-08-20 07:04:39 51°12.235 2°47.799 19.3 339 15.7 100520 89
2004-08-20 07:04:44 51°12.226 2°47.772 18.5 336 15.7 100520 89
2004-08-20 07:04:49 51°12.217 2°47.746 18.8 338 15.7 100520 89
2004-08-20 07:04:53 51°12.21 2°47.724 19.6 342 15.7 100520 89
2004-08-20 07:04:59 51°12.199 2°47.693 18.8 342 15.7 100530 89
2004-08-20 07:05:02 51°12.194 2°47.677 18.1 343 15.7 100530 89
2004-08-20 07:05:08 51°12.183 2°47.645 19.9 339 15.7 100510 88
2004-08-20 07:05:12 51°12.176 2°47.624 19 338 15.7 100510 88
2004-08-20 07:05:16 51°12.169 2°47.602 20.4 340 15.7 100510 88
2004-08-20 07:05:26 51°12.152 2°47.548 19.3 344 15.7 100510 88
2004-08-20 07:05:32 51°12.141 2°47.516 19.4 342 15.7 100510 88
2004-08-20 07:05:36 51°12.134 2°47.495 19.9 345 15.7 100510 88
2004-08-20 07:05:42 51°12.123 2°47.463 18.4 340 15.7 100510 88
2004-08-20 07:05:45 51°12.118 2°47.447 18 337 15.6 100510 87
2004-08-20 07:05:52 51°12.105 2°47.41 18 337 15.6 100510 87
2004-08-20 07:05:57 51°12.097 2°47.384 17.8 340 15.6 100520 88
2004-08-20 07:06:05 51°12.083 2°47.341 17.4 342 15.6 100520 88
2004-08-20 07:06:11 51°12.072 2°47.309 18.7 340 15.7 100520 88
2004-08-20 07:06:16 51°12.063 2°47.282 16.7 340 15.7 100520 88
2004-08-20 07:06:21 51°12.054 2°47.255 17.8 345 15.6 100510 87
2004-08-20 07:06:25 51°12.047 2°47.234 18.9 343 15.6 100510 87
2004-08-20 07:06:31 51°12.037 2°47.202 19.9 343 15.7 100530 88
2004-08-20 07:06:33 51°12.033 2°47.191 18.4 341 15.7 100530 88
2004-08-20 07:06:40 51°12.021 2°47.153 19.1 346 15.7 100530 88
2004-08-20 07:06:44 51°12.014 2°47.132 19.3 345 15.7 100530 88
2004-08-20 07:06:50 51°12.003 2°47.099 20.4 345 15.7 100530 88
2004-08-20 07:06:55 51°11.995 2°47.072 19.7 345 15.7 100530 88
2004-08-20 07:07:00 51°11.986 2°47.045 19.5 341 15.7 100530 88
2004-08-20 07:07:04 51°11.979 2°47.024 18.8 342 15.7 100530 88
2004-08-20 07:07:11 51°11.967 2°46.986 19.6 341 15.7 100520 87
2004-08-20 07:07:16 51°11.958 2°46.959 17.7 341 15.7 100520 87
2004-08-20 07:07:21 51°11.949 2°46.932 19.5 339 15.6 100540 88
2004-08-20 07:07:25 51°11.942 2°46.911 18.4 341 15.6 100540 88
2004-08-20 07:07:31 51°11.931 2°46.878 18.5 343 15.6 100520 87
2004-08-20 07:07:33 51°11.928 2°46.868 17.8 349 15.6 100520 87
2004-08-20 07:07:40 51°11.915 2°46.83 19.2 338 15.7 100520 88
2004-08-20 07:07:46 51°11.904 2°46.797 17.2 341 15.7 100520 88
2004-08-20 07:07:50 51°11.897 2°46.776 18.9 343 15.7 100520 87
2004-08-20 07:07:56 51°11.887 2°46.743 17.9 345 15.7 100520 87
2004-08-20 07:08:05 51°11.871 2°46.694 19.2 340 15.7 100530 88
2004-08-20 07:08:12 51°11.859 2°46.656 18.3 340 15.7 100530 88
2004-08-20 07:08:16 51°11.852 2°46.635 18.9 337 15.7 100520 88
2004-08-20 07:08:20 51°11.845 2°46.613 19.4 335 15.7 100520 88
2004-08-20 07:08:27 51°11.833 2°46.575 16.6 342 15.7 100520 88
2004-08-20 07:08:32 51°11.824 2°46.548 16.5 341 15.7 100520 88
2004-08-20 07:08:36 51°11.817 2°46.526 16.7 344 15.7 100520 88
2004-08-20 07:08:40 51°11.81 2°46.504 18.8 343 15.7 100520 88
2004-08-20 07:08:47 51°11.798 2°46.466 18.3 340 15.7 100520 88
2004-08-20 07:08:52 51°11.789 2°46.44 17.2 337 15.7 100520 88
2004-08-20 07:08:56 51°11.782 2°46.418 19.4 341 15.7 100540 89
2004-08-20 07:09:00 51°11.775 2°46.396 18.3 341 15.7 100540 89
2004-08-20 07:09:07 51°11.763 2°46.358 18.8 345 15.7 100530 88
2004-08-20 07:09:12 51°11.754 2°46.331 17.7 343 15.7 100530 88
2004-08-20 07:09:17 51°11.745 2°46.304 18.8 344 15.7 100520 88
2004-08-20 07:09:22 51°11.736 2°46.277 17.7 345 15.7 100520 88
2004-08-20 07:09:27 51°11.727 2°46.25 19 345 15.7 100530 88
2004-08-20 07:09:32 51°11.719 2°46.223 17 340 15.7 100530 88
2004-08-20 07:09:37 51°11.71 2°46.195 19.6 339 15.8 100520 88
2004-08-20 07:09:42 51°11.701 2°46.168 19.3 341 15.8 100520 88
2004-08-20 07:09:46 51°11.695 2°46.146 19.7 339 15.7 100530 88
2004-08-20 07:09:52 51°11.684 2°46.114 19.5 340 15.7 100530 88
2004-08-20 07:09:56 51°11.678 2°46.092 18.7 336 15.7 100530 88
2004-08-20 07:10:00 51°11.671 2°46.07 17.8 337 15.7 100530 88
2004-08-20 07:10:06 51°11.66 2°46.037 17.6 345 15.7 100510 88
2004-08-20 07:10:12 51°11.649 2°46.005 17.3 344 15.7 100510 88
2004-08-20 07:10:16 51°11.642 2°45.983 17.6 345 15.6 100510 87
2004-08-20 07:10:20 51°11.635 2°45.962 17.6 341 15.6 100510 87
2004-08-20 07:10:27 51°11.622 2°45.924 16.9 344 15.7 100530 87
2004-08-20 07:10:32 51°11.614 2°45.897 16.1 339 15.7 100530 87
2004-08-20 07:10:37 51°11.605 2°45.87 17.1 342 15.7 100530 88
2004-08-20 07:10:42 51°11.596 2°45.843 17.8 341 15.7 100530 88
2004-08-20 07:10:47 51°11.587 2°45.815 18.7 343 15.7 100540 88
2004-08-20 07:10:52 51°11.578 2°45.788 18.2 343 15.7 100540 88
2004-08-20 07:10:57 51°11.569 2°45.761 18.3 344 15.8 100550 88
2004-08-20 07:11:05 51°11.556 2°45.717 17.2 344 15.8 100540 89
2004-08-20 07:11:12 51°11.543 2°45.679 17.4 345 15.8 100540 89
2004-08-20 07:11:16 51°11.536 2°45.658 17.3 342 15.8 100530 88
2004-08-20 07:11:20 51°11.529 2°45.636 17.5 340 15.8 100530 88
2004-08-20 07:11:26 51°11.518 2°45.604 18.8 347 15.8 100530 88
2004-08-20 07:11:32 51°11.508 2°45.571 17.4 345 15.8 100530 88
2004-08-20 07:11:37 51°11.499 2°45.544 16.6 339 15.8 100540 88
2004-08-20 07:11:40 51°11.494 2°45.528 19.8 343 15.8 100540 88
2004-08-20 07:11:45 51°11.485 2°45.501 17 342 15.8 100540 89
2004-08-20 07:11:52 51°11.473 2°45.463 18 347 15.8 100540 89
2004-08-20 07:11:57 51°11.464 2°45.436 19.2 339 15.8 100530 89
2004-08-20 07:12:00 51°11.459 2°45.42 19.5 339 15.8 100530 89
2004-08-20 07:12:04 51°11.452 2°45.398 18 345 15.8 100530 88
2004-08-20 07:12:12 51°11.438 2°45.355 17.9 338 15.8 100530 88
2004-08-20 07:12:17 51°11.429 2°45.328 19.1 343 15.8 100540 88
2004-08-20 07:12:20 51°11.424 2°45.312 19.5 338 15.8 100540 88
2004-08-20 07:12:24 51°11.417 2°45.29 17.4 343 15.8 100530 88
2004-08-20 07:12:32 51°11.403 2°45.246 18.8 346 15.8 100530 88
2004-08-20 07:12:36 51°11.397 2°45.224 18 343 15.8 100530 88
2004-08-20 07:12:40 51°11.39 2°45.202 20.7 343 15.8 100530 88
2004-08-20 07:12:44 51°11.383 2°45.18 18.5 342 15.9 100530 89
2004-08-20 07:12:52 51°11.37 2°45.137 17.7 342 15.9 100530 89
2004-08-20 07:12:56 51°11.363 2°45.115 18.2 345 15.8 100540 89
2004-08-20 07:13:00 51°11.356 2°45.093 17.2 346 15.8 100540 89
2004-08-20 07:13:07 51°11.344 2°45.054 19.3 346 15.8 100530 88
2004-08-20 07:13:12 51°11.335 2°45.027 17.9 342 15.8 100530 88
2004-08-20 07:13:17 51°11.327 2°45 19.7 338 15.7 100530 88
2004-08-20 07:13:22 51°11.318 2°44.973 18.3 341 15.7 100530 88
2004-08-20 07:13:25 51°11.313 2°44.956 17.3 343 15.7 100540 88
2004-08-20 07:13:32 51°11.301 2°44.918 16.5 343 15.7 100540 88
2004-08-20 07:13:36 51°11.294 2°44.897 17.4 339 15.7 100540 88
2004-08-20 07:13:42 51°11.284 2°44.864 16.1 339 15.7 100540 88
2004-08-20 07:13:45 51°11.279 2°44.847 18.2 343 15.7 100530 88
2004-08-20 07:13:52 51°11.267 2°44.809 16 343 15.7 100530 88
2004-08-20 07:13:56 51°11.259 2°44.787 16.7 347 15.7 100550 88
2004-08-20 07:14:00 51°11.253 2°44.766 18.3 345 15.7 100550 88
2004-08-20 07:14:05 51°11.244 2°44.738 18.3 344 15.7 100550 89
2004-08-20 07:14:12 51°11.231 2°44.7 21.4 354 15.7 100550 89
2004-08-20 07:14:17 51°11.223 2°44.673 19.9 345 15.7 100540 89
2004-08-20 07:14:20 51°11.217 2°44.657 17.3 341 15.7 100540 89
2004-08-20 07:14:25 51°11.209 2°44.63 15.9 345 15.7 100550 89
2004-08-20 07:14:32 51°11.197 2°44.592 18.1 340 15.7 100550 89
2004-08-20 07:14:36 51°11.19 2°44.571 17.1 347 15.7 100540 89
2004-08-20 07:14:40 51°11.183 2°44.549 17.5 343 15.7 100540 89
2004-08-20 07:14:44 51°11.176 2°44.528 19.2 339 15.7 100540 89
2004-08-20 07:14:52 51°11.162 2°44.484 19.3 342 15.7 100540 89
2004-08-20 07:14:56 51°11.155 2°44.463 18.9 337 15.6 100550 89
2004-08-20 07:15:00 51°11.149 2°44.441 18.1 338 15.6 100550 89
2004-08-20 07:15:05 51°11.14 2°44.414 18 344 15.6 100550 89
2004-08-20 07:15:12 51°11.129 2°44.375 19 350 15.6 100550 89
2004-08-20 07:15:16 51°11.122 2°44.354 19.3 344 15.6 100540 89
2004-08-20 07:15:22 51°11.112 2°44.321 18.7 345 15.6 100540 89
2004-08-20 07:15:27 51°11.103 2°44.294 18.1 342 15.6 100540 90
2004-08-20 07:15:32 51°11.095 2°44.267 17.6 339 15.6 100540 90
2004-08-20 07:15:36 51°11.088 2°44.245 18.6 342 15.6 100550 90
2004-08-20 07:15:40 51°11.081 2°44.224 18.9 341 15.6 100550 90
2004-08-20 07:15:47 51°11.069 2°44.186 19.4 340 15.6 100540 89
2004-08-20 07:15:52 51°11.061 2°44.159 19 337 15.6 100540 89
2004-08-20 07:15:57 51°11.052 2°44.131 18.9 347 15.6 100540 90
2004-08-20 07:16:02 51°11.044 2°44.104 20.1   15.6 100540 90
2004-08-20 07:16:05 51°11.039 2°44.088 18 346 15.5 100530 89
2004-08-20 07:16:12 51°11.026 2°44.049 18.8 344 15.5 100530 89
2004-08-20 07:16:17 51°11.018 2°44.022 18.2 341 15.5 100540 89
2004-08-20 07:16:25 51°11.004 2°43.978 16.8 341 15.5 100550 89
2004-08-20 07:16:32 51°10.991 2°43.94 17 347 15.5 100550 89
2004-08-20 07:16:37 51°10.982 2°43.913 18 345 15.5 100550 90
2004-08-20 07:16:40 51°10.977 2°43.897 20 346 15.5 100550 90
2004-08-20 07:16:44 51°10.971 2°43.875 19.3 343 15.5 100540 89
2004-08-20 07:16:52 51°10.957 2°43.831 19.1 343 15.5 100540 89
2004-08-20 07:16:57 51°10.949 2°43.803 20.1 340 15.5 100550 90
2004-08-20 07:17:00 51°10.944 2°43.787 20.1 344 15.5 100550 90
2004-08-20 07:17:06 51°10.934 2°43.754 18.9 344 15.5 100540 90
2004-08-20 07:17:12 51°10.924 2°43.721 17.2 346 15.5 100540 90
2004-08-20 07:17:16 51°10.917 2°43.699 18.8 346 15.5 100550 89
2004-08-20 07:17:20 51°10.911 2°43.677 18.6 348 15.5 100550 89
2004-08-20 07:17:24 51°10.904 2°43.656 18.4 344 15.5 100540 90
2004-08-20 07:17:32 51°10.89 2°43.612 17.2 348 15.5 100540 90
2004-08-20 07:17:36 51°10.883 2°43.59 19 345 15.5 100550 90
2004-08-20 07:17:42 51°10.873 2°43.557 18.7 342 15.5 100550 90
2004-08-20 07:17:47 51°10.865 2°43.53 18.2 344 15.5 100560 90
2004-08-20 07:17:52 51°10.856 2°43.503 16.7 345 15.5 100560 90
2004-08-20 07:17:56 51°10.849 2°43.48 17.1 337 15.5 100550 90
2004-08-20 07:18:02 51°10.84 2°43.447 18.8 331 15.5 100550 90
2004-08-20 07:18:07 51°10.834 2°43.418 18.2 328 15.5 100550 90
2004-08-20 07:18:12 51°10.829 2°43.389 15.3 330 15.5 100550 90
2004-08-20 07:18:16 51°10.826 2°43.365 15.9 323 15.4 100540 89
2004-08-20 07:18:22 51°10.824 2°43.329 14.7 319 15.4 100540 89
2004-08-20 07:18:27 51°10.823 2°43.298 16.6 328 15.5 100550 89
2004-08-20 07:18:32 51°10.822 2°43.268 16.3 323 15.5 100550 89
2004-08-20 07:18:37 51°10.822 2°43.237 17 320 15.5 100540 90
2004-08-20 07:18:40 51°10.822 2°43.219 16.6 318 15.5 100540 90
2004-08-20 07:18:46 51°10.822 2°43.182 16.3 327 15.5 100540 90
2004-08-20 07:18:52 51°10.823 2°43.145 16.6 325 15.5 100540 90
2004-08-20 07:18:57 51°10.823 2°43.114 16.3 325 15.5 100540 90
2004-08-20 07:19:02 51°10.824 2°43.083 15.2 329 15.5 100540 90
2004-08-20 07:19:05 51°10.824 2°43.064 15.3 327 15.5 100550 90
2004-08-20 07:19:12 51°10.826 2°43.021 15.9 327 15.5 100550 90
2004-08-20 07:19:17 51°10.827 2°42.99 16.1 319 15.5 100550 91
2004-08-20 07:19:20 51°10.828 2°42.971 16.2 325 15.5 100550 91
2004-08-20 07:19:24 51°10.829 2°42.947 17.3 322 15.5 100560 91
2004-08-20 07:19:32 51°10.832 2°42.897 17.6 319 15.5 100560 91
2004-08-20 07:19:36 51°10.833 2°42.873 16.7 321 15.5 100540 91
2004-08-20 07:19:40 51°10.834 2°42.848 15.5 322 15.5 100540 91
2004-08-20 07:19:46 51°10.836 2°42.811 17 319 15.5 100550 91
2004-08-20 07:19:52 51°10.838 2°42.774 15 325 15.5 100550 91
2004-08-20 07:19:56 51°10.839 2°42.749 15.2 327 15.5 100540 91
2004-08-20 07:20:00 51°10.84 2°42.724 15.8 328 15.5 100540 91
2004-08-20 07:20:05 51°10.842 2°42.693 16.2 328 15.5 100540 91
2004-08-20 07:20:12 51°10.844 2°42.65 14.3 325 15.5 100540 91
2004-08-20 07:20:17 51°10.846 2°42.619 15.6 322 15.5 100550 91
2004-08-20 07:20:20 51°10.847 2°42.6 14.9 323 15.5 100550 91
2004-08-20 07:20:26 51°10.849 2°42.563 16.6 321 15.5 100560 91
2004-08-20 07:20:32 51°10.852 2°42.526 16.2 326 15.5 100560 91
2004-08-20 07:20:37 51°10.854 2°42.495 15.6 318 15.5 100550 91
2004-08-20 07:20:42 51°10.857 2°42.464 17.7 322 15.5 100550 91
2004-08-20 07:20:45 51°10.859 2°42.446 16.7 324 15.4 100560 91
2004-08-20 07:20:52 51°10.863 2°42.403 16.3 324 15.4 100560 91
2004-08-20 07:20:57 51°10.866 2°42.372 15.6 319 15.4 100550 91
2004-08-20 07:21:00 51°10.868 2°42.354 16.1   15.4 100550 91
2004-08-20 07:21:04 51°10.87 2°42.329 17.4 42 15.4 100550 91
2004-08-20 07:21:12 51°10.875 2°42.28 16.8 315 15.4 100550 91
2004-08-20 07:21:16 51°10.877 2°42.255 15 44 15.4 100540 91
2004-08-20 07:21:20 51°10.879 2°42.231 16.5 319 15.4 100540 91
2004-08-20 07:21:26 51°10.881 2°42.194 15.2 40 15.4 100550 91
2004-08-20 07:21:32 51°10.884 2°42.157 15 319 15.4 100550 91
2004-08-20 07:21:37 51°10.887 2°42.126 16.9 318 15.4 100540 91
2004-08-20 07:21:42 51°10.89 2°42.096 15.3 317 15.4 100540 91
2004-08-20 07:21:45 51°10.891 2°42.077 15.9 323 15.3 100560 91
2004-08-20 07:21:52 51°10.895 2°42.035 17.1 325 15.3 100560 91
2004-08-20 07:21:57 51°10.898 2°42.004 17.8 327 15.4 100550 91
2004-08-20 07:22:02 51°10.901 2°41.973 17.3 325 15.4 100550 91
2004-08-20 07:22:07 51°10.904 2°41.943 16.5 323 15.4 100550 91
2004-08-20 07:22:12 51°10.907 2°41.912 18.1 322 15.4 100550 91
2004-08-20 07:22:17 51°10.91 2°41.881 17.1 321 15.4 100550 91
2004-08-20 07:22:20 51°10.911 2°41.863 15.3 315 15.4 100550 91
2004-08-20 07:22:26 51°10.915 2°41.826 17.3 319 15.3 100540 91
2004-08-20 07:22:32 51°10.918 2°41.79 18.2 321 15.3 100540 91
2004-08-20 07:22:37 51°10.918 2°41.759 17.3 330 15.3 100530 91
2004-08-20 07:22:40 51°10.918 2°41.741 17.3 329 15.3 100530 91
2004-08-20 07:22:44 51°10.917 2°41.717 16.9 337 15.3 100550 91
2004-08-20 07:22:52 51°10.911 2°41.67 18.1 340 15.3 100550 91
2004-08-20 07:22:56 51°10.907 2°41.647 18.1 344 15.3 100540 92
2004-08-20 07:23:02 51°10.899 2°41.613 17.8 344 15.3 100540 92
2004-08-20 07:23:07 51°10.891 2°41.586 17.9 344 15.4 100550 92
2004-08-20 07:23:12 51°10.883 2°41.559 19.6 347 15.4 100550 92
2004-08-20 07:23:17 51°10.874 2°41.533 17.5 350 15.3 100550 91
2004-08-20 07:23:20 51°10.868 2°41.517 19.4 353 15.3 100550 91
2004-08-20 07:23:24 51°10.861 2°41.497 19.1 351 15.3 100550 92
2004-08-20 07:23:32 51°10.845 2°41.455 17.8 349 15.3 100550 92
2004-08-20 07:23:36 51°10.837 2°41.435 19 347 15.4 100550 92
2004-08-20 07:23:42 51°10.824 2°41.405 17.9 348 15.4 100550 92
2004-08-20 07:23:45 51°10.818 2°41.39 18.5 347 15.4 100550 92
2004-08-20 07:23:52 51°10.802 2°41.356 18.8 347 15.4 100550 92
2004-08-20 07:23:57 51°10.79 2°41.332 17.6 353 15.4 100560 92
2004-08-20 07:24:00 51°10.783 2°41.318 19.2 352 15.4 100560 92
2004-08-20 07:24:04 51°10.773 2°41.299 17.7 348 15.4 100560 92
2004-08-20 07:24:12 51°10.754 2°41.262 16.5 356 15.4 100560 92
2004-08-20 07:24:16 51°10.744 2°41.244 18.5 346 15.4 100560 92
2004-08-20 07:24:26 51°10.719 2°41.198 15.6 352 15.5 100560 92
2004-08-20 07:24:32 51°10.704 2°41.17 19.5 352 15.5 100560 92
2004-08-20 07:24:36 51°10.694 2°41.151 19.3 355 15.5 100580 92
2004-08-20 07:24:42 51°10.679 2°41.124 19 354 15.5 100580 92
2004-08-20 07:24:45 51°10.672 2°41.11 17 352 15.5 100570 93
2004-08-20 07:24:52 51°10.654 2°41.078 17.2 355 15.5 100570 93
2004-08-20 07:24:57 51°10.641 2°41.055 16.8 356 15.5 100570 92
2004-08-20 07:25:05 51°10.622 2°41.018 17.7 356 15.4 100560 92
2004-08-20 07:25:10 51°10.609 2°40.995 17.9 354 15.4 100560 92
2004-08-20 07:25:15 51°10.597 2°40.972 18.1 351 15.4 100560 92
2004-08-20 07:25:20 51°10.584 2°40.949 17.3 351 15.5 100570 92
2004-08-20 07:25:24 51°10.574 2°40.93 19.5 348 15.5 100570 92
2004-08-20 07:25:31 51°10.557 2°40.897 19 355 15.4 100550 92
2004-08-20 07:25:36 51°10.545 2°40.873 18.5 359 15.4 100550 92
2004-08-20 07:25:40 51°10.536 2°40.855 18.4 355 15.4 100560 92
2004-08-20 07:25:46 51°10.522 2°40.827 17.2 354 15.4 100560 92
2004-08-20 07:25:50 51°10.512 2°40.808 17.5 357 15.4 100560 92
2004-08-20 07:25:56 51°10.497 2°40.78 18 345 15.4 100560 92
2004-08-20 07:26:00 51°10.488 2°40.761 18.1 350 15.4 100550 92
2004-08-20 07:26:04 51°10.478 2°40.743 17 346 15.4 100550 92
2004-08-20 07:26:12 51°10.458 2°40.705 17.6 351 15.3 100560 92
2004-08-20 07:26:16 51°10.448 2°40.687 18.7 354 15.3 100560 92
2004-08-20 07:26:26 51°10.424 2°40.64 20.1 353 15.4 100550 92
2004-08-20 07:26:31 51°10.411 2°40.617 19.9 352 15.4 100570 92
2004-08-20 07:26:36 51°10.399 2°40.593 17.9 351 15.4 100570 92
2004-08-20 07:26:40 51°10.389 2°40.575 17.4 349 15.4 100570 92
2004-08-20 07:26:46 51°10.374 2°40.547 18.9 359 15.4 100560 92
2004-08-20 07:26:48 51°10.369 2°40.537 17.5 352 15.4 100560 92
2004-08-20 07:26:56 51°10.35 2°40.5 16.9 352 15.4 100560 92
2004-08-20 07:27:00 51°10.34 2°40.481 18.9 350 15.4 100570 92
2004-08-20 07:27:04 51°10.331 2°40.463 16.3 351 15.4 100570 92
2004-08-20 07:27:10 51°10.316 2°40.434 16.2 352 15.4 100570 92
2004-08-20 07:27:16 51°10.302 2°40.406 16.3 350 15.4 100570 92
2004-08-20 07:27:20 51°10.293 2°40.387 16.3 352 15.4 100560 92
2004-08-20 07:27:26 51°10.278 2°40.358 16.1 351 15.4 100560 92
2004-08-20 07:27:28 51°10.274 2°40.349 16.2 352 15.4 100560 92
2004-08-20 07:27:35 51°10.257 2°40.315 16.3 353 15.4 100560 92
2004-08-20 07:27:40 51°10.245 2°40.291 16.8 354 15.4 100560 92
2004-08-20 07:27:46 51°10.23 2°40.263 15.7 355 15.4 100560 92
2004-08-20 07:27:48 51°10.225 2°40.253 16.2 349 15.4 100580 92
2004-08-20 07:27:55 51°10.208 2°40.22 15.5 355 15.4 100580 92
2004-08-20 07:28:00 51°10.196 2°40.196 14.9 351 15.4 100570 92
2004-08-20 07:28:04 51°10.187 2°40.177 17.5 349 15.4 100570 92
2004-08-20 07:28:10 51°10.173 2°40.148 16.2 350 15.4 100560 92
2004-08-20 07:28:16 51°10.158 2°40.12 17 350 15.4 100560 92
2004-08-20 07:28:26 51°10.134 2°40.072 16 352 15.4 100560 93
2004-08-20 07:28:32 51°10.119 2°40.044 16.6 347 15.4 100560 93
2004-08-20 07:28:36 51°10.11 2°40.025 19.2 353 15.4 100550 92
2004-08-20 07:28:42 51°10.095 2°39.997 18.8 351 15.4 100550 92
2004-08-20 07:28:45 51°10.088 2°39.983 17.4 349 15.4 100570 93
2004-08-20 07:28:52 51°10.071 2°39.949 17.7 349 15.4 100570 93
2004-08-20 07:28:57 51°10.059 2°39.925 18.2 345 15.5 100570 93
2004-08-20 07:29:05 51°10.04 2°39.887 18.2 347 15.4 100540 92
2004-08-20 07:29:10 51°10.028 2°39.863 16.9 348 15.4 100540 92
2004-08-20 07:29:15 51°10.016 2°39.839 16.7 355 15.4 100540 92
2004-08-20 07:29:20 51°10.004 2°39.815 17.9 353 15.4 100570 92
2004-08-20 07:29:24 51°9.995 2°39.796 17.8 351 15.4 100570 92
2004-08-20 07:29:31 51°9.978 2°39.763 15.6 348 15.4 100550 92
2004-08-20 07:29:36 51°9.965 2°39.739 18.6 348 15.4 100550 92
2004-08-20 07:29:40 51°9.955 2°39.72 17.6 354 15.4 100560 92
2004-08-20 07:29:46 51°9.941 2°39.692 15.8 355 15.4 100560 92
2004-08-20 07:29:50 51°9.932 2°39.672 16.2 352 15.4 100580 92
2004-08-20 07:29:55 51°9.92 2°39.649 17.7 356 15.4 100580 92
2004-08-20 07:30:01 51°9.905 2°39.62 16.5 352 15.5 100570 93
2004-08-20 07:30:06 51°9.894 2°39.596 18.2 351 15.5 100570 93
2004-08-20 07:30:11 51°9.882 2°39.572 16.8 354 15.5 100560 93
2004-08-20 07:30:16 51°9.87 2°39.548 17.2 355 15.5 100560 93
2004-08-20 07:30:20 51°9.86 2°39.529 18.2 356 15.5 100570 93
2004-08-20 07:30:25 51°9.849 2°39.505 17.5 359 15.5 100570 93
2004-08-20 07:30:31 51°9.834 2°39.476 18.7 359 15.5 100590 93
2004-08-20 07:30:36 51°9.822 2°39.452 17 355 15.5 100590 93
2004-08-20 07:30:45 51°9.801 2°39.41 18.4 354 15.5 100560 93
2004-08-20 07:30:50 51°9.789 2°39.386 18.6 349 15.5 100570 92
2004-08-20 07:30:55 51°9.776 2°39.362 17.6 352 15.5 100570 92
2004-08-20 07:31:00 51°9.765 2°39.338 15.8 352 15.4 100570 92
2004-08-20 07:31:04 51°9.755 2°39.318 16.3 351 15.4 100570 92
2004-08-20 07:31:10 51°9.742 2°39.288 17 343 15.4 100570 92
2004-08-20 07:31:15 51°9.733 2°39.261 18.1 341 15.4 100570 92
2004-08-20 07:31:20 51°9.724 2°39.234 16 341 15.4 100570 92
2004-08-20 07:31:24 51°9.718 2°39.211 17.7 344 15.4 100570 92
2004-08-20 07:31:31 51°9.709 2°39.171 17.7 332 15.4 100580 92
2004-08-20 07:31:36 51°9.705 2°39.141 16.6 328 15.4 100580 92
2004-08-20 07:31:41 51°9.704 2°39.111 16.5 322 15.4 100560 92
2004-08-20 07:31:45 51°9.705 2°39.087 15.9 315 15.4 100560 92
2004-08-20 07:31:51 51°9.709 2°39.051 15.7 317 15.4 100560 92
2004-08-20 07:31:56 51°9.714 2°39.023 15.1 230 15.4 100560 92
2004-08-20 07:32:01 51°9.722 2°38.996 15.1 227 15.4 100560 92
2004-08-20 07:32:04 51°9.728 2°38.981 14.6 302 15.4 100560 92
2004-08-20 07:32:11 51°9.744 2°38.948 13.9 300 15.4 100550 92
2004-08-20 07:32:16 51°9.756 2°38.925 13 298 15.4 100550 92
2004-08-20 07:32:20 51°9.765 2°38.906 13.8 307 15.4 100570 92
2004-08-20 07:32:26 51°9.779 2°38.877 13.8 308 15.4 100570 92
2004-08-20 07:32:31 51°9.791 2°38.852 14.7 303 15.4 100560 92
2004-08-20 07:32:36 51°9.803 2°38.828 13.2 302 15.4 100580 92
2004-08-20 07:32:40 51°9.812 2°38.808 13.6 298 15.4 100580 92
2004-08-20 07:32:45 51°9.824 2°38.784 12.5 301 15.4 100580 92
2004-08-20 07:32:51 51°9.838 2°38.754 13.3 299 15.3 100580 92
2004-08-20 07:32:56 51°9.85 2°38.73 11.3 301 15.3 100580 92
2004-08-20 07:33:00 51°9.859 2°38.71 11.1 298 15.4 100580 92
2004-08-20 07:33:05 51°9.871 2°38.685 13.2 309 15.4 100580 92
2004-08-20 07:33:11 51°9.886 2°38.656 12 303 15.4 100580 92
2004-08-20 07:33:16 51°9.898 2°38.631 12.6 306 15.4 100580 92
2004-08-20 07:33:21 51°9.911 2°38.607 12.4 309 15.4 100590 92
2004-08-20 07:33:25 51°9.92 2°38.587 13.9 314 15.4 100590 92
2004-08-20 07:33:31 51°9.935 2°38.557 13.6 305 15.4 100600 93
2004-08-20 07:33:36 51°9.947 2°38.532 13.6 308 15.4 100600 93
2004-08-20 07:33:39 51°9.954 2°38.518 13.5 310 15.4 100580 93
2004-08-20 07:33:44 51°9.966 2°38.493 13.4 314 15.4 100590 93
2004-08-20 07:33:50 51°9.981 2°38.464 13.2 304 15.4 100590 93
2004-08-20 07:33:55 51°9.993 2°38.439 13.7 302 15.4 100590 93
2004-08-20 07:34:00 51°10.005 2°38.415 13.7 303 15.4 100580 92
2004-08-20 07:34:06 51°10.019 2°38.386 12.6 308 15.4 100580 92
2004-08-20 07:34:10 51°10.029 2°38.366 14 303 15.4 100580 92
2004-08-20 07:34:16 51°10.044 2°38.337 14.3 307 15.4 100580 92
2004-08-20 07:34:21 51°10.056 2°38.313 14.5 304 15.4 100580 92
2004-08-20 07:34:25 51°10.066 2°38.293 13.8 303 15.4 100580 92
2004-08-20 07:34:31 51°10.082 2°38.264 12.6 296 15.4 100580 92
2004-08-20 07:34:36 51°10.094 2°38.24 12.4 303 15.4 100580 92
2004-08-20 07:34:39 51°10.101 2°38.226 14.3 302 15.4 100580 92
2004-08-20 07:34:44 51°10.113 2°38.202 12.9 307 15.3 100580 92
2004-08-20 07:34:50 51°10.128 2°38.172 14.2 307 15.3 100580 92
2004-08-20 07:34:55 51°10.14 2°38.147 13.2 303 15.3 100580 92
2004-08-20 07:35:00 51°10.15 2°38.121 13.7 308 15.3 100580 92
2004-08-20 07:35:06 51°10.161 2°38.089 15 44 15.3 100580 92
2004-08-20 07:35:10 51°10.167 2°38.067 13.9 319 15.4 100580 92
2004-08-20 07:35:16 51°10.174 2°38.032 15.8 319 15.4 100580 92
2004-08-20 07:35:21 51°10.179 2°38.003 15.7 318 15.4 100580 93
2004-08-20 07:35:25 51°10.182 2°37.979 17 324 15.4 100580 93
2004-08-20 07:35:31 51°10.187 2°37.943 16 319 15.4 100580 93
2004-08-20 07:35:36 51°10.191 2°37.913 15.5 320 15.4 100580 93
2004-08-20 07:35:39 51°10.192 2°37.895 15.7 321 15.4 100570 93
2004-08-20 07:35:44 51°10.194 2°37.864 16.4 325 15.4 100570 93
2004-08-20 07:35:50 51°10.194 2°37.827 16 326 15.4 100560 93
2004-08-20 07:35:55 51°10.193 2°37.797 16.7 327 15.4 100560 92
2004-08-20 07:36:00 51°10.191 2°37.766 15.3 327 15.4 100560 92
2004-08-20 07:36:04 51°10.188 2°37.742 15.8 333 15.4 100560 92
2004-08-20 07:36:10 51°10.184 2°37.706 16.6 338 15.3 100560 92
2004-08-20 07:36:15 51°10.178 2°37.677 16 339 15.3 100560 92
2004-08-20 07:36:20 51°10.171 2°37.649 16.2 345 15.3 100560 92
2004-08-20 07:36:24 51°10.165 2°37.627 16 343 15.3 100560 92
2004-08-20 07:36:30 51°10.154 2°37.596 15.9 351 15.3 100550 92
2004-08-20 07:36:35 51°10.144 2°37.57 16.6 351 15.3 100550 92
2004-08-20 07:36:40 51°10.133 2°37.545 17.5 358 15.3 100560 92
2004-08-20 07:36:45 51°10.122 2°37.52 16.2 353 15.3 100560 92
2004-08-20 07:36:51 51°10.108 2°37.491 17.2 357 15.4 100570 93
2004-08-20 07:36:56 51°10.097 2°37.466 17.7 355 15.4 100570 93
2004-08-20 07:37:01 51°10.085 2°37.441 16.5 352 15.4 100580 93
2004-08-20 07:37:04 51°10.078 2°37.426 17.9 350 15.4 100580 93
2004-08-20 07:37:11 51°10.062 2°37.392 17 351 15.4 100570 93
2004-08-20 07:37:16 51°10.05 2°37.367 15.9 355 15.4 100570 93
2004-08-20 07:37:26 51°10.027 2°37.318 16.9 352 15.4 100570 93
2004-08-20 07:37:28 51°10.022 2°37.308 18.2 355 15.4 100580 93
2004-08-20 07:37:35 51°10.005 2°37.273 18.8 355 15.4 100580 93
2004-08-20 07:37:40 51°9.994 2°37.249 17.6 351 15.3 100570 93
2004-08-20 07:37:45 51°9.982 2°37.224 17 354 15.3 100570 93
2004-08-20 07:37:48 51°9.975 2°37.209 17.6 354 15.4 100580 93
2004-08-20 07:37:56 51°9.957 2°37.17 18 353 15.4 100580 93
2004-08-20 07:38:01 51°9.945 2°37.146 17.4 353 15.4 100570 93
2004-08-20 07:38:05 51°9.935 2°37.127 17.7 355 15.4 100570 93
2004-08-20 07:38:11 51°9.921 2°37.097 17.5 352 15.4 100570 93
2004-08-20 07:38:16 51°9.909 2°37.073 16 349 15.4 100570 93
2004-08-20 07:38:20 51°9.9 2°37.053 17.3 345 15.4 100570 93
2004-08-20 07:38:25 51°9.888 2°37.028 17.7 352 15.4 100570 93
2004-08-20 07:38:31 51°9.875 2°36.998 18.1 351 15.4 100570 93
2004-08-20 07:38:36 51°9.863 2°36.974 16.4 352 15.4 100570 93
2004-08-20 07:38:45 51°9.843 2°36.929 16.8 346 15.3 100560 92
2004-08-20 07:38:50 51°9.831 2°36.904 16.2 354 15.3 100570 92
2004-08-20 07:38:55 51°9.819 2°36.88 16.5 356 15.3 100570 92
2004-08-20 07:39:00 51°9.808 2°36.855 16.9 354 15.3 100570 92
2004-08-20 07:39:04 51°9.798 2°36.835 17.1 350 15.3 100570 92
2004-08-20 07:39:10 51°9.785 2°36.805 17.4 353 15.3 100570 92
2004-08-20 07:39:16 51°9.771 2°36.775 17.3 348 15.3 100570 92
2004-08-20 07:39:20 51°9.761 2°36.756 18.2 351 15.3 100560 93
2004-08-20 07:39:26 51°9.747 2°36.725 16.9 351 15.3 100560 93
2004-08-20 07:39:30 51°9.738 2°36.705 17.6 356 15.3 100570 93
2004-08-20 07:39:36 51°9.723 2°36.675 17.2 355 15.3 100570 93
2004-08-20 07:39:41 51°9.712 2°36.65 16.6 351 15.3 100570 93
2004-08-20 07:39:44 51°9.705 2°36.635 15.9 351 15.3 100570 93
2004-08-20 07:39:48 51°9.696 2°36.615 16.1 351 15.3 100570 93
2004-08-20 07:39:54 51°9.682 2°36.585 16.1 352 15.4 100580 93
2004-08-20 07:40:00 51°9.668 2°36.555 15 356 15.4 100580 93
2004-08-20 07:40:04 51°9.659 2°36.535 14.9 348 15.4 100570 93
2004-08-20 07:40:10 51°9.645 2°36.505 17.7 348 15.4 100570 93
2004-08-20 07:40:15 51°9.633 2°36.48 18.9 354 15.4 100570 93
2004-08-20 07:40:20 51°9.622 2°36.455 17.3 353 15.4 100570 93
2004-08-20 07:40:24 51°9.613 2°36.435 16.7 347 15.4 100570 93
2004-08-20 07:40:30 51°9.599 2°36.405 16.2 350 15.4 100580 93
2004-08-20 07:40:35 51°9.587 2°36.379 17.2 353 15.4 100580 93
2004-08-20 07:40:40 51°9.576 2°36.354 17.1 346 15.4 100560 93
2004-08-20 07:40:44 51°9.566 2°36.334 16.9 353 15.4 100560 93
2004-08-20 07:40:50 51°9.553 2°36.304 18.1 358 15.4 100570 93
2004-08-20 07:40:55 51°9.541 2°36.279 17   15.4 100570 93
2004-08-20 07:41:00 51°9.53 2°36.254 17.9 354 15.5 100570 93
2004-08-20 07:41:04 51°9.521 2°36.233 17.2 350 15.4 100580 93
2004-08-20 07:41:10 51°9.509 2°36.201 17.7 345 15.4 100580 93
2004-08-20 07:41:15 51°9.499 2°36.174 17.7 340 15.4 100580 93
2004-08-20 07:41:20 51°9.491 2°36.145 16.8 348 15.4 100570 93
2004-08-20 07:41:24 51°9.485 2°36.123 15.9 340 15.4 100570 93
2004-08-20 07:41:30 51°9.477 2°36.087 16.7 334 15.4 100570 93
2004-08-20 07:41:36 51°9.471 2°36.051 16.6 330 15.4 100570 93
2004-08-20 07:41:46 51°9.465 2°35.99 16.4 327 15.4 100570 93
2004-08-20 07:41:52 51°9.464 2°35.952 17 326 15.4 100570 93
2004-08-20 07:41:56 51°9.464 2°35.928 15.5 324 15.4 100540 93
2004-08-20 07:42:02 51°9.465 2°35.89 15.6 318 15.4 100540 93
2004-08-20 07:42:05 51°9.466 2°35.872 15.7 314 15.5 100550 93
2004-08-20 07:42:12 51°9.472 2°35.83 13.6 314 15.5 100550 93
2004-08-20 07:42:16 51°9.476 2°35.805 14.1 229 15.4 100550 93
2004-08-20 07:42:22 51°9.483 2°35.769 12.8 310 15.4 100550 93
2004-08-20 07:42:27 51°9.491 2°35.741 14.1 302 15.4 100550 93
2004-08-20 07:42:32 51°9.5 2°35.713 11.8 293 15.4 100550 93
2004-08-20 07:42:37 51°9.51 2°35.687 12.3 301 15.5 100560 93
2004-08-20 07:42:42 51°9.522 2°35.662 11.3 299 15.5 100560 93
2004-08-20 07:42:44 51°9.527 2°35.653 12.3 297 15.4 100560 93
2004-08-20 07:42:53 51°9.55 2°35.611 12.6 291 15.4 100560 93
2004-08-20 07:42:59 51°9.567 2°35.586 11.2 283 15.4 100570 93
2004-08-20 07:43:04 51°9.582 2°35.565 11.5 291 15.4 100570 93
2004-08-20 07:43:08 51°9.594 2°35.55 11.1 289 15.5 100580 93
2004-08-20 07:43:14 51°9.612 2°35.528 11.7 286 15.5 100580 93
2004-08-20 07:43:19 51°9.627 2°35.51 12.9 286 15.4 100580 93
2004-08-20 07:43:24 51°9.643 2°35.492 10.5 279 15.4 100580 93
2004-08-20 07:43:28 51°9.656 2°35.478 10.6 277 15.4 100590 93
2004-08-20 07:43:34 51°9.675 2°35.458 9.1 281 15.4 100590 93
2004-08-20 07:43:36 51°9.682 2°35.452 10.7 267 15.4 100590 93
2004-08-20 07:43:44 51°9.709 2°35.429 8.6 268 15.4 100590 93
2004-08-20 07:43:48 51°9.723 2°35.419 7.9 276 15.4 100590 93
2004-08-20 07:43:54 51°9.743 2°35.403 10.2 262 15.4 100590 93
2004-08-20 07:43:59 51°9.761 2°35.391 9.8 260 15.4 100610 93
2004-08-20 07:44:04 51°9.778 2°35.379 6.5 280 15.4 100610 93
2004-08-20 07:44:13 51°9.809 2°35.357 9.4 273 15.4 100610 93
2004-08-20 07:44:19 51°9.83 2°35.343 10.2 271 15.4 100600 93
2004-08-20 07:44:23 51°9.844 2°35.334 9.7 268 15.4 100600 93
2004-08-20 07:44:29 51°9.865 2°35.32 8.7 267 15.4 100610 93
2004-08-20 07:44:32 51°9.876 2°35.314 8.5 272 15.4 100610 93
2004-08-20 07:44:42 51°9.912 2°35.301 4.9 255 15.4 100610 93
2004-08-20 07:44:44 51°9.92 2°35.299 7.7 266 15.4 100610 93
2004-08-20 07:44:52 51°9.949 2°35.294 7.3 243 15.4 100610 93
2004-08-20 07:44:57 51°9.967 2°35.291 8 233 15.5 100610 93
2004-08-20 07:45:00 51°9.978 2°35.289 5.6 249 15.5 100610 93
2004-08-20 07:45:04 51°9.993 2°35.288 4.4 245 15.5 100610 93
2004-08-20 07:45:12 51°10.023 2°35.285 6 235 15.5 100610 93
2004-08-20 07:45:17 51°10.041 2°35.284 4.5 258 15.5 100610 93
2004-08-20 07:45:22 51°10.059 2°35.283 6.7 241 15.5 100610 93
2004-08-20 07:45:25 51°10.07 2°35.283 6.2 258 15.5 100620 93
2004-08-20 07:45:32 51°10.095 2°35.283 6.5 233 15.5 100620 93
2004-08-20 07:45:36 51°10.11 2°35.283 6.3 235 15.4 100610 93
2004-08-20 07:45:40 51°10.124 2°35.285 5.8 227 15.4 100610 93
2004-08-20 07:45:46 51°10.146 2°35.29 5.9 221 15.4 100620 93
2004-08-20 07:45:52 51°10.167 2°35.298 4.8 232 15.4 100620 93
2004-08-20 07:45:56 51°10.181 2°35.303 4.8 221 15.4 100610 93
2004-08-20 07:46:02 51°10.202 2°35.313 5.8 213 15.4 100610 93
2004-08-20 07:46:07 51°10.219 2°35.322 5.2 217 15.4 100620 93
2004-08-20 07:46:10 51°10.23 2°35.328 4 190 15.4 100620 93
2004-08-20 07:46:17 51°10.252 2°35.346 2.9 148 15.4 100620 93
2004-08-20 07:46:21 51°10.265 2°35.357 5.8 159 15.4 100620 93
2004-08-20 07:46:24 51°10.274 2°35.366 6.2 157 15.4 100620 93
2004-08-20 07:46:32 51°10.298 2°35.392 5.9 157 15.4 100620 93
2004-08-20 07:46:37 51°10.312 2°35.41 4.9 157 15.4 100630 93
2004-08-20 07:46:40 51°10.321 2°35.42 5.2 157 15.4 100630 93
2004-08-20 07:46:45 51°10.335 2°35.438 5.1 163 15.4 100620 93
2004-08-20 07:46:52 51°10.355 2°35.462 4.8 157 15.4 100620 93
2004-08-20 07:46:56 51°10.365 2°35.477 4.1 164 15.4 100620 93
2004-08-20 07:47:02 51°10.383 2°35.499 4 147 15.4 100620 93
2004-08-20 07:47:07 51°10.397 2°35.516 3.6 159 15.4 100630 93
2004-08-20 07:47:12 51°10.411 2°35.535 4 152 15.4 100630 93
2004-08-20 07:47:17 51°10.425 2°35.552 4 154 15.4 100620 93
2004-08-20 07:47:19 51°10.43 2°35.559 3.6 156 15.4 100620 93
2004-08-20 07:47:27 51°10.453 2°35.587 3.5 120 15.4 100620 93
2004-08-20 07:47:32 51°10.467 2°35.606 2.5 143 15.4 100620 93
2004-08-20 07:47:37 51°10.481 2°35.623 4 141 15.4 100620 92
2004-08-20 07:47:40 51°10.488 2°35.635 4.1 147 15.4 100620 92
2004-08-20 07:47:46 51°10.506 2°35.656 4.2 148 15.4 100620 93
2004-08-20 07:47:50 51°10.517 2°35.67 4.4 152 15.4 100620 93
2004-08-20 07:47:56 51°10.534 2°35.691 5 156 15.5 100610 93
2004-08-20 07:48:02 51°10.551 2°35.711 5 150 15.5 100610 93
2004-08-20 07:48:04 51°10.557 2°35.718 4.9 159 15.5 100620 93
2004-08-20 07:48:13 51°10.583 2°35.75 4.5 153 15.5 100620 93
2004-08-20 07:48:19 51°10.6 2°35.772 3.9 164 15.5 100620 93
2004-08-20 07:48:23 51°10.611 2°35.786 4.9 140 15.5 100620 93
2004-08-20 07:48:28 51°10.625 2°35.803 3 156 15.5 100630 93
2004-08-20 07:48:32 51°10.637 2°35.817 4.6 161 15.5 100630 93
2004-08-20 07:48:39 51°10.657 2°35.842 5.1 170 15.5 100630 93
2004-08-20 07:48:44 51°10.672 2°35.859 5.1 166 15.5 100630 93
2004-08-20 07:48:48 51°10.683 2°35.873 4.8 167 15.5 100630 93
2004-08-20 07:48:54 51°10.701 2°35.894 4.3 170 15.5 100630 93
2004-08-20 07:48:59 51°10.715 2°35.912 3.7 160 15.5 100610 93
2004-08-20 07:49:04 51°10.729 2°35.93 3.4 119 15.5 100610 93
2004-08-20 07:49:09 51°10.742 2°35.95 4.3 142 15.5 100620 93
2004-08-20 07:49:13 51°10.754 2°35.965 6.7 138 15.5 100620 93
2004-08-20 07:49:19 51°10.768 2°35.99 5.3 138 15.5 100610 93
2004-08-20 07:49:24 51°10.781 2°36.01 5.8 156 15.5 100610 93
2004-08-20 07:49:33 51°10.803 2°36.049 4.8 135 15.6 100620 93
2004-08-20 07:49:39 51°10.817 2°36.074 6.2 159 15.6 100620 93
2004-08-20 07:49:44 51°10.829 2°36.096 6.1 158 15.6 100620 93
2004-08-20 07:49:54 51°10.854 2°36.138 5.3 164 15.5 100620 93
2004-08-20 07:49:59 51°10.866 2°36.159 5.3 172 15.5 100620 93
2004-08-20 07:50:04 51°10.879 2°36.18 5.4 175 15.5 100620 93
2004-08-20 07:50:14 51°10.904 2°36.222 3.3 151 15.5 100620 92
2004-08-20 07:50:19 51°10.917 2°36.241 3.7 174 15.6 100630 92
2004-08-20 07:50:24 51°10.929 2°36.262 4.7 135 15.6 100630 92
2004-08-20 07:50:28 51°10.94 2°36.278 5.2 153 15.6 100620 93
2004-08-20 07:50:33 51°10.952 2°36.298 5.3 161 15.6 100620 93